createdAt,value
2018-09-25T00:00:01.490Z,1.27
2018-09-25T00:02:35.000Z,1.10
2018-09-25T00:05:09.322Z,1.00
2018-09-25T00:07:42.880Z,1.37
2018-09-25T00:10:16.626Z,0.95
2018-09-25T00:12:50.276Z,1.12
2018-09-25T00:15:27.715Z,1.30
2018-09-25T00:18:01.412Z,1.00
2018-09-25T00:20:36.022Z,1.20
2018-09-25T00:23:09.712Z,1.00
2018-09-25T00:25:43.461Z,0.90
2018-09-25T00:28:17.070Z,0.80
2018-09-25T00:30:51.376Z,1.02
2018-09-25T00:33:25.168Z,0.80
2018-09-25T00:35:59.387Z,0.80
2018-09-25T00:38:33.078Z,0.82
2018-09-25T00:41:06.907Z,0.95
2018-09-25T00:43:40.575Z,1.10
2018-09-25T00:46:14.354Z,1.00
2018-09-25T00:48:48.003Z,0.80
2018-09-25T00:51:22.335Z,1.02
2018-09-25T00:53:55.859Z,0.85
2018-09-25T00:56:29.511Z,0.88
2018-09-25T00:59:03.168Z,0.88
2018-09-25T01:01:37.042Z,0.90
2018-09-25T01:04:10.766Z,1.02
2018-09-25T01:06:44.867Z,0.85
2018-09-25T01:09:18.569Z,1.12
2018-09-25T01:11:52.475Z,0.82
2018-09-25T01:14:26.151Z,0.90
2018-09-25T01:17:03.454Z,1.07
2018-09-25T01:19:37.154Z,1.05
2018-09-25T01:22:11.390Z,0.93
2018-09-25T01:24:44.954Z,0.88
2018-09-25T01:27:19.101Z,0.90
2018-09-25T01:29:52.778Z,0.88
2018-09-25T01:32:27.139Z,0.80
2018-09-25T01:35:00.798Z,0.78
2018-09-25T01:37:35.263Z,0.80
2018-09-25T01:40:08.766Z,0.88
2018-09-25T01:42:42.395Z,0.70
2018-09-25T01:45:16.128Z,1.00
2018-09-25T01:47:50.167Z,0.80
2018-09-25T01:50:23.879Z,1.00
2018-09-25T01:52:57.815Z,0.75
2018-09-25T01:55:31.336Z,0.55
2018-09-25T01:58:05.295Z,0.70
2018-09-25T02:00:38.963Z,0.80
2018-09-25T02:03:12.905Z,0.82
2018-09-25T02:05:53.197Z,0.65
2018-09-25T02:08:27.206Z,0.85
2018-09-25T02:11:00.932Z,0.70
2018-09-25T02:13:35.115Z,0.75
2018-09-25T02:16:08.793Z,0.80
2018-09-25T02:18:42.814Z,0.90
2018-09-25T02:21:16.327Z,0.80
2018-09-25T02:23:50.423Z,0.75
2018-09-25T02:26:23.975Z,0.80
2018-09-25T02:28:58.139Z,0.53
2018-09-25T02:31:31.722Z,0.68
2018-09-25T02:34:05.436Z,0.65
2018-09-25T02:36:39.118Z,0.70
2018-09-25T02:39:14.947Z,0.80
2018-09-25T02:41:48.627Z,0.80
2018-09-25T02:44:22.369Z,0.53
2018-09-25T02:46:55.994Z,0.65
2018-09-25T02:49:30.057Z,0.60
2018-09-25T02:52:03.798Z,0.80
2018-09-25T02:54:37.642Z,0.70
2018-09-25T02:57:11.415Z,0.70
2018-09-25T02:59:45.561Z,0.60
2018-09-25T03:02:19.169Z,0.65
2018-09-25T03:04:53.155Z,0.50
2018-09-25T03:07:30.445Z,0.80
2018-09-25T03:10:04.474Z,0.50
2018-09-25T03:12:38.067Z,0.78
2018-09-25T03:15:12.347Z,0.60
2018-09-25T03:17:45.963Z,0.60
2018-09-25T03:20:19.978Z,0.45
2018-09-25T03:22:53.679Z,0.53
2018-09-25T03:25:28.234Z,0.60
2018-09-25T03:28:01.782Z,0.50
2018-09-25T03:30:35.558Z,0.70
2018-09-25T03:33:09.211Z,0.50
2018-09-25T03:35:43.554Z,0.60
2018-09-25T03:38:17.229Z,0.72
2018-09-25T03:40:51.999Z,0.70
2018-09-25T03:43:25.562Z,0.93
2018-09-25T03:45:59.603Z,0.70
2018-09-25T03:48:33.138Z,0.70
2018-09-25T03:51:07.209Z,0.90
2018-09-25T03:53:40.844Z,0.72
2018-09-25T03:56:15.279Z,0.50
2018-09-25T03:58:48.932Z,0.72
2018-09-25T04:01:22.858Z,0.80
2018-09-25T04:03:56.514Z,0.57
2018-09-25T04:06:30.566Z,0.70
2018-09-25T04:09:06.879Z,0.65
2018-09-25T04:11:41.257Z,0.75
2018-09-25T04:14:14.834Z,0.65
2018-09-25T04:16:48.671Z,0.70
2018-09-25T04:19:22.418Z,0.60
2018-09-25T04:21:56.474Z,0.50
2018-09-25T04:24:30.118Z,0.60
2018-09-25T04:27:04.497Z,0.57
2018-09-25T04:29:38.081Z,0.80
2018-09-25T04:32:12.224Z,0.60
2018-09-25T04:34:46.026Z,0.70
2018-09-25T04:37:20.144Z,0.50
2018-09-25T04:39:53.634Z,0.60
2018-09-25T04:42:27.546Z,0.70
2018-09-25T04:45:01.090Z,0.50
2018-09-25T04:47:35.154Z,0.80
2018-09-25T04:50:08.940Z,0.70
2018-09-25T04:52:43.361Z,0.65
2018-09-25T04:55:16.922Z,0.70
2018-09-25T04:57:52.951Z,0.57
2018-09-25T05:00:26.790Z,0.50
2018-09-25T05:03:00.408Z,0.60
2018-09-25T05:05:35.844Z,0.62
2018-09-25T05:08:10.129Z,0.70
2018-09-25T05:10:43.978Z,0.60
2018-09-25T05:13:17.729Z,0.65
2018-09-25T05:15:51.402Z,0.70
2018-09-25T05:18:25.231Z,0.60
2018-09-25T05:20:58.828Z,0.62
2018-09-25T05:23:32.913Z,0.70
2018-09-25T05:26:06.637Z,0.60
2018-09-25T05:28:40.774Z,0.80
2018-09-25T05:31:14.347Z,0.80
2018-09-25T05:33:48.278Z,0.68
2018-09-25T05:36:21.748Z,0.80
2018-09-25T05:38:56.626Z,0.60
2018-09-25T05:41:30.386Z,0.90
2018-09-25T05:44:04.191Z,0.95
2018-09-25T05:46:37.729Z,1.02
2018-09-25T05:49:11.564Z,1.00
2018-09-25T05:51:45.244Z,0.85
2018-09-25T05:54:20.167Z,0.72
2018-09-25T05:56:53.790Z,0.80
2018-09-25T05:59:27.959Z,0.80
2018-09-25T06:02:01.651Z,0.90
2018-09-25T06:04:35.415Z,0.90
2018-09-25T06:07:09.043Z,0.70
2018-09-25T06:09:43.598Z,0.88
2018-09-25T06:12:17.322Z,1.00
2018-09-25T06:14:51.154Z,0.90
2018-09-25T06:17:24.855Z,0.78
2018-09-25T06:19:58.749Z,1.00
2018-09-25T06:22:32.506Z,0.60
2018-09-25T06:25:07.095Z,1.10
2018-09-25T06:27:40.835Z,0.93
2018-09-25T06:30:14.526Z,0.85
2018-09-25T06:32:48.142Z,0.90
2018-09-25T06:35:22.307Z,0.80
2018-09-25T06:37:56.045Z,0.90
2018-09-25T06:40:30.844Z,1.07
2018-09-25T06:43:04.623Z,0.85
2018-09-25T06:45:38.466Z,0.95
2018-09-25T06:48:12.026Z,0.95
2018-09-25T06:50:46.946Z,1.02
2018-09-25T06:53:20.653Z,0.98
2018-09-25T06:55:54.802Z,0.90
2018-09-25T06:58:28.394Z,0.70
2018-09-25T07:01:02.376Z,0.80
2018-09-25T07:03:35.866Z,0.75
2018-09-25T07:06:11.038Z,0.93
2018-09-25T07:08:44.914Z,0.90
2018-09-25T07:11:22.573Z,0.85
2018-09-25T07:13:56.247Z,0.62
2018-09-25T07:16:30.071Z,1.00
2018-09-25T07:19:03.850Z,0.85
2018-09-25T07:21:38.206Z,0.90
2018-09-25T07:24:11.974Z,0.90
2018-09-25T07:26:46.926Z,0.88
2018-09-25T07:29:20.637Z,0.80
2018-09-25T07:31:54.846Z,0.88
2018-09-25T07:34:28.533Z,0.80
2018-09-25T07:37:02.355Z,0.78
2018-09-25T07:39:36.019Z,0.90
2018-09-25T07:42:11.151Z,0.82
2018-09-25T07:44:44.691Z,0.80
2018-09-25T07:47:18.617Z,0.75
2018-09-25T07:49:52.411Z,0.95
2018-09-25T07:52:26.841Z,0.90
2018-09-25T07:55:00.522Z,0.93
2018-09-25T07:57:35.418Z,0.90
2018-09-25T08:00:09.073Z,0.90
2018-09-25T08:02:43.564Z,0.70
2018-09-25T08:05:18.739Z,0.80
2018-09-25T08:07:52.487Z,1.05
2018-09-25T08:10:26.214Z,0.98
2018-09-25T08:13:06.297Z,1.00
2018-09-25T08:15:39.915Z,0.90
2018-09-25T08:18:13.806Z,0.90
2018-09-25T08:20:47.322Z,1.10
2018-09-25T08:23:22.665Z,0.75
2018-09-25T08:25:56.269Z,1.15
2018-09-25T08:28:30.061Z,0.88
2018-09-25T08:31:03.812Z,1.22
2018-09-25T08:33:38.284Z,0.98
2018-09-25T08:36:12.039Z,0.70
2018-09-25T08:38:47.007Z,1.10
2018-09-25T08:41:20.609Z,1.02
2018-09-25T08:43:54.521Z,0.90
2018-09-25T08:46:28.343Z,1.10
2018-09-25T08:49:02.571Z,0.95
2018-09-25T08:51:36.142Z,0.90
2018-09-25T08:54:10.482Z,0.60
2018-09-25T08:56:44.143Z,0.80
2018-09-25T08:59:18.099Z,0.80
2018-09-25T09:01:51.887Z,0.60
2018-09-25T09:04:25.498Z,0.98
2018-09-25T09:06:59.172Z,0.98
2018-09-25T09:09:33.939Z,0.85
2018-09-25T09:12:07.721Z,0.80
2018-09-25T09:14:42.259Z,0.70
2018-09-25T09:17:15.954Z,0.78
2018-09-25T09:19:49.753Z,1.05
2018-09-25T09:22:23.414Z,1.10
2018-09-25T09:24:58.421Z,1.10
2018-09-25T09:27:32.121Z,0.90
2018-09-25T09:30:05.936Z,0.70
2018-09-25T09:32:39.670Z,0.78
2018-09-25T09:35:13.436Z,1.00
2018-09-25T09:37:47.106Z,0.70
2018-09-25T09:40:21.529Z,0.72
2018-09-25T09:42:55.131Z,0.82
2018-09-25T09:45:28.831Z,0.88
2018-09-25T09:48:02.307Z,0.72
2018-09-25T09:50:35.995Z,0.70
2018-09-25T09:53:09.750Z,0.85
2018-09-25T09:55:44.391Z,1.10
2018-09-25T09:58:18.067Z,0.78
2018-09-25T10:00:51.743Z,0.80
2018-09-25T10:03:25.372Z,0.90
2018-09-25T10:05:59.069Z,1.00
2018-09-25T10:08:32.770Z,1.02
2018-09-25T10:11:07.946Z,1.20
2018-09-25T10:13:41.602Z,1.22
2018-09-25T10:16:17.005Z,1.10
2018-09-25T10:18:50.564Z,1.15
2018-09-25T10:21:24.819Z,0.80
2018-09-25T10:23:58.546Z,0.95
2018-09-25T10:26:33.150Z,0.95
2018-09-25T10:29:06.867Z,1.10
2018-09-25T10:31:40.970Z,0.98
2018-09-25T10:34:14.768Z,0.82
2018-09-25T10:36:48.874Z,1.60
2018-09-25T10:39:22.578Z,1.47
2018-09-25T10:41:57.082Z,1.35
2018-09-25T10:44:30.786Z,1.30
2018-09-25T10:47:04.841Z,1.40
2018-09-25T10:49:38.497Z,1.50
2018-09-25T10:52:12.846Z,1.37
2018-09-25T10:54:46.582Z,1.22
2018-09-25T10:57:22.206Z,1.35
2018-09-25T10:59:55.826Z,1.47
2018-09-25T11:02:30.130Z,0.98
2018-09-25T11:05:08.734Z,1.12
2018-09-25T11:07:42.871Z,1.40
2018-09-25T11:10:16.648Z,1.20
2018-09-25T11:12:50.574Z,1.42
2018-09-25T11:15:24.346Z,1.32
2018-09-25T11:17:59.179Z,1.20
2018-09-25T11:20:32.952Z,1.30
2018-09-25T11:23:07.439Z,1.30
2018-09-25T11:25:41.034Z,1.50
2018-09-25T11:28:14.757Z,1.60
2018-09-25T11:30:48.315Z,1.65
2018-09-25T11:33:22.063Z,1.30
2018-09-25T11:35:55.819Z,1.52
2018-09-25T11:38:30.561Z,1.30
2018-09-25T11:41:04.403Z,1.50
2018-09-25T11:43:38.649Z,1.35
2018-09-25T11:46:12.671Z,1.42
2018-09-25T11:48:46.949Z,1.98
2018-09-25T11:51:20.650Z,1.62
2018-09-25T11:53:55.382Z,1.55
2018-09-25T11:56:29.087Z,1.52
2018-09-25T11:59:03.087Z,1.30
2018-09-25T12:01:36.763Z,1.55
2018-09-25T12:04:11.027Z,1.45
2018-09-25T12:06:44.590Z,1.27
2018-09-25T12:09:18.620Z,1.77
2018-09-25T12:11:52.289Z,1.67
2018-09-25T12:14:27.355Z,1.32
2018-09-25T12:17:01.130Z,1.12
2018-09-25T12:19:41.323Z,1.85
2018-09-25T12:22:15.129Z,1.32
2018-09-25T12:24:50.287Z,1.60
2018-09-25T12:27:23.958Z,1.62
2018-09-25T12:29:58.086Z,1.80
2018-09-25T12:32:31.651Z,1.80
2018-09-25T12:35:05.899Z,1.60
2018-09-25T12:37:39.661Z,1.57
2018-09-25T12:40:14.738Z,1.92
2018-09-25T12:42:48.439Z,1.62
2018-09-25T12:45:22.558Z,1.72
2018-09-25T12:47:56.347Z,1.60
2018-09-25T12:50:30.383Z,1.90
2018-09-25T12:53:03.979Z,1.62
2018-09-25T12:55:38.701Z,1.60
2018-09-25T12:58:12.445Z,1.47
2018-09-25T13:00:46.322Z,1.50
2018-09-25T13:03:19.879Z,2.10
2018-09-25T13:05:53.755Z,2.20
2018-09-25T13:08:27.336Z,2.40
2018-09-25T13:11:01.911Z,2.55
2018-09-25T13:13:35.614Z,2.02
2018-09-25T13:16:09.769Z,2.77
2018-09-25T13:18:45.418Z,2.55
2018-09-25T13:21:18.917Z,2.55
2018-09-25T13:23:52.679Z,2.80
2018-09-25T13:26:27.358Z,3.00
2018-09-25T13:29:01.028Z,2.55
2018-09-25T13:31:35.172Z,2.75
2018-09-25T13:34:08.949Z,2.50
2018-09-25T13:36:42.991Z,2.50
2018-09-25T13:39:16.757Z,2.50
2018-09-25T13:41:51.632Z,2.60
2018-09-25T13:44:25.210Z,2.67
2018-09-25T13:46:59.546Z,2.80
2018-09-25T13:49:33.292Z,2.55
2018-09-25T13:52:07.742Z,2.65
2018-09-25T13:54:41.598Z,2.30
2018-09-25T13:57:17.655Z,2.55
2018-09-25T13:59:51.342Z,2.70
2018-09-25T14:02:25.163Z,2.80
2018-09-25T14:05:00.699Z,2.42
2018-09-25T14:07:36.145Z,2.62
2018-09-25T14:10:09.699Z,2.62
2018-09-25T14:12:43.981Z,2.60
2018-09-25T14:15:17.869Z,2.45
2018-09-25T14:17:51.779Z,2.72
2018-09-25T14:20:27.255Z,2.83
2018-09-25T14:23:01.554Z,2.10
2018-09-25T14:25:35.001Z,2.58
2018-09-25T14:28:08.951Z,2.70
2018-09-25T14:30:42.556Z,2.62
2018-09-25T14:33:16.783Z,2.50
2018-09-25T14:35:50.272Z,1.92
2018-09-25T14:38:24.731Z,2.30
2018-09-25T14:40:58.418Z,2.60
2018-09-25T14:43:32.396Z,2.77
2018-09-25T14:46:06.052Z,2.12
2018-09-25T14:48:40.078Z,2.60
2018-09-25T14:51:13.814Z,2.35
2018-09-25T14:53:47.686Z,2.52
2018-09-25T14:56:21.419Z,2.15
2018-09-25T14:58:55.238Z,2.62
2018-09-25T15:01:29.002Z,2.15
2018-09-25T15:04:02.954Z,2.17
2018-09-25T15:06:36.761Z,2.35
2018-09-25T15:09:13.765Z,2.20
2018-09-25T15:11:47.630Z,2.15
2018-09-25T15:14:21.579Z,2.12
2018-09-25T15:16:55.266Z,2.22
2018-09-25T15:19:29.288Z,2.20
2018-09-25T15:22:03.875Z,2.33
2018-09-25T15:24:38.022Z,2.30
2018-09-25T15:27:11.695Z,1.92
2018-09-25T15:29:45.551Z,2.05
2018-09-25T15:32:19.210Z,2.00
2018-09-25T15:34:53.034Z,2.00
2018-09-25T15:37:26.799Z,1.82
2018-09-25T15:40:00.859Z,2.00
2018-09-25T15:42:34.584Z,2.08
2018-09-25T15:45:08.774Z,1.87
2018-09-25T15:47:43.553Z,2.05
2018-09-25T15:50:17.314Z,2.17
2018-09-25T15:52:50.951Z,1.92
2018-09-25T15:55:25.743Z,1.75
2018-09-25T15:57:59.509Z,1.82
2018-09-25T16:00:33.480Z,1.98
2018-09-25T16:03:06.981Z,1.77
2018-09-25T16:05:41.186Z,1.70
2018-09-25T16:08:14.866Z,1.70
2018-09-25T16:10:49.405Z,1.85
2018-09-25T16:13:30.869Z,1.90
2018-09-25T16:16:04.702Z,1.80
2018-09-25T16:18:38.495Z,1.80
2018-09-25T16:21:12.202Z,1.60
2018-09-25T16:23:49.831Z,1.85
2018-09-25T16:26:23.833Z,1.70
2018-09-25T16:28:57.484Z,1.57
2018-09-25T16:31:31.947Z,1.80
2018-09-25T16:34:05.504Z,1.70
2018-09-25T16:36:39.251Z,1.35
2018-09-25T16:39:14.891Z,1.42
2018-09-25T16:41:50.140Z,1.20
2018-09-25T16:44:23.689Z,1.50
2018-09-25T16:46:57.747Z,1.75
2018-09-25T16:49:31.302Z,1.20
2018-09-25T16:52:05.117Z,1.50
2018-09-25T16:54:38.731Z,1.60
2018-09-25T16:57:13.288Z,1.35
2018-09-25T16:59:47.135Z,1.30
2018-09-25T17:02:21.758Z,1.50
2018-09-25T17:04:57.795Z,1.45
2018-09-25T17:07:31.709Z,1.40
2018-09-25T17:10:05.397Z,1.72
2018-09-25T17:12:39.100Z,1.70
2018-09-25T17:15:12.821Z,1.20
2018-09-25T17:17:46.590Z,1.55
2018-09-25T17:20:20.306Z,1.60
2018-09-25T17:22:55.016Z,1.40
2018-09-25T17:25:35.747Z,1.30
2018-09-25T17:28:09.753Z,1.47
2018-09-25T17:30:43.307Z,1.30
2018-09-25T17:33:17.343Z,1.42
2018-09-25T17:35:50.999Z,1.32
2018-09-25T17:38:25.663Z,1.42
2018-09-25T17:40:59.368Z,1.12
2018-09-25T17:43:33.681Z,1.30
2018-09-25T17:46:07.242Z,1.20
2018-09-25T17:48:41.494Z,1.42
2018-09-25T17:51:15.119Z,1.30
2018-09-25T17:53:49.750Z,1.30
2018-09-25T17:56:23.413Z,1.42
2018-09-25T17:58:57.456Z,1.82
2018-09-25T18:01:31.223Z,1.65
2018-09-25T18:04:05.803Z,1.50
2018-09-25T18:06:39.526Z,1.37
2018-09-25T18:09:14.614Z,4.03
2018-09-25T18:11:48.335Z,6.28
2018-09-25T18:14:22.219Z,6.03
2018-09-25T18:16:55.736Z,22.45
2018-09-25T18:19:29.746Z,35.63
2018-09-25T18:22:03.566Z,68.55
2018-09-25T18:24:39.608Z,85.75
2018-09-25T18:27:13.256Z,105.07
2018-09-25T18:29:47.235Z,137.75
2018-09-25T18:32:21.021Z,142.05
2018-09-25T18:34:55.462Z,136.62
2018-09-25T18:37:29.187Z,132.85
2018-09-25T18:40:04.831Z,132.97
2018-09-25T18:42:38.561Z,134.60
2018-09-25T18:45:16.508Z,129.57
2018-09-25T18:47:50.184Z,126.20
2018-09-25T18:50:24.289Z,118.02
2018-09-25T18:52:58.012Z,116.10
2018-09-25T18:55:32.863Z,115.90
2018-09-25T18:58:06.465Z,110.57
2018-09-25T19:00:40.482Z,107.10
2018-09-25T19:03:14.130Z,102.65
2018-09-25T19:05:48.322Z,99.37
2018-09-25T19:08:21.979Z,96.87
2018-09-25T19:10:56.727Z,91.53
2018-09-25T19:13:30.399Z,86.30
2018-09-25T19:16:04.270Z,85.42
2018-09-25T19:18:37.960Z,80.15
2018-09-25T19:21:12.458Z,78.12
2018-09-25T19:23:46.168Z,78.90
2018-09-25T19:26:22.318Z,73.07
2018-09-25T19:28:56.043Z,72.78
2018-09-25T19:31:29.838Z,69.95
2018-09-25T19:34:03.588Z,68.67
2018-09-25T19:36:37.453Z,69.25
2018-09-25T19:39:13.526Z,69.32
2018-09-25T19:41:48.049Z,67.03
2018-09-25T19:44:21.813Z,65.83
2018-09-25T19:46:55.875Z,66.40
2018-09-25T19:49:29.482Z,63.40
2018-09-25T19:52:03.603Z,61.77
2018-09-25T19:54:37.499Z,63.13
2018-09-25T19:57:12.096Z,60.40
2018-09-25T19:59:45.881Z,62.05
2018-09-25T20:02:19.626Z,57.65
2018-09-25T20:04:54.882Z,58.78
2018-09-25T20:07:28.651Z,56.55
2018-09-25T20:10:02.292Z,56.73
2018-09-25T20:12:36.674Z,54.65
2018-09-25T20:15:10.208Z,54.27
2018-09-25T20:17:44.714Z,53.05
2018-09-25T20:20:18.409Z,51.15
2018-09-25T20:22:53.030Z,50.92
2018-09-25T20:25:26.809Z,51.48
2018-09-25T20:28:05.899Z,51.77
2018-09-25T20:30:39.685Z,50.50
2018-09-25T20:33:13.858Z,48.73
2018-09-25T20:35:47.394Z,49.85
2018-09-25T20:38:21.915Z,48.87
2018-09-25T20:40:55.534Z,48.63
2018-09-25T20:43:29.913Z,47.23
2018-09-25T20:46:03.483Z,46.15
2018-09-25T20:48:37.442Z,44.67
2018-09-25T20:51:11.133Z,44.98
2018-09-25T20:53:45.367Z,44.25
2018-09-25T20:56:19.058Z,43.17
2018-09-25T20:58:53.078Z,43.20
2018-09-25T21:01:26.711Z,40.90
2018-09-25T21:04:00.583Z,41.80
2018-09-25T21:06:34.366Z,41.02
2018-09-25T21:09:08.850Z,41.18
2018-09-25T21:11:42.546Z,40.33
2018-09-25T21:14:16.534Z,39.80
2018-09-25T21:16:49.966Z,37.90
2018-09-25T21:19:23.939Z,39.15
2018-09-25T21:21:57.595Z,38.38
2018-09-25T21:24:32.058Z,37.38
2018-09-25T21:27:05.799Z,37.20
2018-09-25T21:29:40.977Z,37.25
2018-09-25T21:32:14.677Z,36.75
2018-09-25T21:34:48.395Z,35.05
2018-09-25T21:37:22.011Z,34.45
2018-09-25T21:39:56.496Z,32.80
2018-09-25T21:42:30.230Z,31.97
2018-09-25T21:45:04.040Z,32.75
2018-09-25T21:47:37.598Z,32.58
2018-09-25T21:50:11.394Z,32.35
2018-09-25T21:52:45.118Z,33.63
2018-09-25T21:55:19.091Z,33.58
2018-09-25T21:57:52.767Z,32.15
2018-09-25T22:00:26.783Z,30.92
2018-09-25T22:03:00.674Z,29.52
2018-09-25T22:05:34.711Z,30.57
2018-09-25T22:08:08.312Z,30.85
2018-09-25T22:10:42.838Z,30.72
2018-09-25T22:13:16.433Z,30.72
2018-09-25T22:15:50.546Z,30.00
2018-09-25T22:18:24.314Z,28.12
2018-09-25T22:20:58.259Z,28.20
2018-09-25T22:23:31.928Z,29.52
2018-09-25T22:26:06.590Z,27.95
2018-09-25T22:28:40.380Z,27.93
2018-09-25T22:31:20.867Z,27.37
2018-09-25T22:33:54.558Z,27.37
2018-09-25T22:36:28.579Z,27.30
2018-09-25T22:39:02.266Z,26.97
2018-09-25T22:41:36.592Z,25.90
2018-09-25T22:44:10.282Z,25.43
2018-09-25T22:46:44.010Z,25.23
2018-09-25T22:49:17.792Z,26.25
2018-09-25T22:51:51.817Z,25.32
2018-09-25T22:54:25.586Z,26.77
2018-09-25T22:56:59.990Z,26.50
2018-09-25T22:59:33.718Z,25.10
2018-09-25T23:02:07.440Z,25.12
2018-09-25T23:04:42.967Z,23.65
2018-09-25T23:07:16.686Z,25.48
2018-09-25T23:09:50.403Z,23.07
2018-09-25T23:12:24.133Z,24.12
2018-09-25T23:14:57.786Z,22.85
2018-09-25T23:17:31.735Z,23.27
2018-09-25T23:20:05.654Z,22.40
2018-09-25T23:22:39.802Z,23.07
2018-09-25T23:25:13.520Z,22.10
2018-09-25T23:27:47.675Z,21.93
2018-09-25T23:30:21.213Z,23.40
2018-09-25T23:33:03.142Z,21.80
2018-09-25T23:35:36.789Z,21.87
2018-09-25T23:38:11.717Z,21.70
2018-09-25T23:40:44.551Z,21.60
2018-09-25T23:43:19.017Z,20.72
2018-09-25T23:45:55.517Z,20.52
2018-09-25T23:48:55.709Z,20.62
2018-09-25T23:52:28.153Z,20.45
2018-09-25T23:55:08.794Z,19.82
2018-09-25T23:57:41.590Z,19.62
